sensor_id;sensor_type;location;lat;lon;timestamp;P1;durP1;ratioP1;P2;durP2;ratioP2
80313;SDS011;69628;47.516;18.828;2023-08-21T00:00:05;11.30;;;5.80;;
80313;SDS011;69628;47.516;18.828;2023-08-21T00:02:10;16.98;;;5.97;;
80313;SDS011;69628;47.516;18.828;2023-08-21T00:03:10;12.80;;;5.78;;
80313;SDS011;69628;47.516;18.828;2023-08-21T00:04:11;14.02;;;6.20;;
80313;SDS011;69628;47.516;18.828;2023-08-21T00:05:11;7.82;;;5.28;;
80313;SDS011;69628;47.516;18.828;2023-08-21T00:06:12;9.32;;;6.47;;
80313;SDS011;69628;47.516;18.828;2023-08-21T00:07:12;11.68;;;5.57;;
80313;SDS011;69628;47.516;18.828;2023-08-21T00:08:12;11.75;;;6.40;;
80313;SDS011;69628;47.516;18.828;2023-08-21T00:09:13;8.15;;;5.15;;
80313;SDS011;69628;47.516;18.828;2023-08-21T00:10:13;9.05;;;5.72;;
80313;SDS011;69628;47.516;18.828;2023-08-21T00:11:14;6.88;;;5.00;;
80313;SDS011;69628;47.516;18.828;2023-08-21T00:12:14;8.15;;;5.40;;
80313;SDS011;69628;47.516;18.828;2023-08-21T00:13:14;9.55;;;6.07;;
80313;SDS011;69628;47.516;18.828;2023-08-21T00:14:15;7.78;;;5.38;;
80313;SDS011;69628;47.516;18.828;2023-08-21T00:15:15;10.02;;;5.80;;
80313;SDS011;69628;47.516;18.828;2023-08-21T00:16:16;9.57;;;6.00;;
80313;SDS011;69628;47.516;18.828;2023-08-21T00:17:17;9.40;;;5.93;;
80313;SDS011;69628;47.516;18.828;2023-08-21T00:18:17;8.38;;;5.75;;
80313;SDS011;69628;47.516;18.828;2023-08-21T00:19:18;10.18;;;5.75;;
80313;SDS011;69628;47.516;18.828;2023-08-21T00:20:18;8.13;;;5.88;;
80313;SDS011;69628;47.516;18.828;2023-08-21T00:21:19;18.48;;;6.30;;
80313;SDS011;69628;47.516;18.828;2023-08-21T00:22:19;10.25;;;6.07;;
80313;SDS011;69628;47.516;18.828;2023-08-21T00:23:20;9.15;;;5.60;;
80313;SDS011;69628;47.516;18.828;2023-08-21T00:24:20;9.38;;;5.97;;
80313;SDS011;69628;47.516;18.828;2023-08-21T00:25:21;10.90;;;5.95;;
80313;SDS011;69628;47.516;18.828;2023-08-21T00:26:21;14.43;;;6.35;;
80313;SDS011;69628;47.516;18.828;2023-08-21T00:27:22;10.50;;;6.63;;
80313;SDS011;69628;47.516;18.828;2023-08-21T00:28:22;8.43;;;5.25;;
80313;SDS011;69628;47.516;18.828;2023-08-21T00:29:23;7.70;;;5.30;;
80313;SDS011;69628;47.516;18.828;2023-08-21T00:30:23;8.93;;;5.72;;
80313;SDS011;69628;47.516;18.828;2023-08-21T00:31:23;10.07;;;5.90;;
80313;SDS011;69628;47.516;18.828;2023-08-21T00:32:24;10.02;;;6.35;;
80313;SDS011;69628;47.516;18.828;2023-08-21T00:33:24;7.85;;;5.97;;
80313;SDS011;69628;47.516;18.828;2023-08-21T00:34:24;10.45;;;5.50;;
80313;SDS011;69628;47.516;18.828;2023-08-21T00:35:25;6.90;;;5.43;;
80313;SDS011;69628;47.516;18.828;2023-08-21T00:36:25;10.65;;;5.95;;
80313;SDS011;69628;47.516;18.828;2023-08-21T00:37:26;7.93;;;5.32;;
80313;SDS011;69628;47.516;18.828;2023-08-21T00:38:26;9.60;;;5.80;;
80313;SDS011;69628;47.516;18.828;2023-08-21T00:39:26;11.80;;;6.18;;
80313;SDS011;69628;47.516;18.828;2023-08-21T00:40:27;13.38;;;6.60;;
80313;SDS011;69628;47.516;18.828;2023-08-21T00:41:27;11.23;;;6.43;;
80313;SDS011;69628;47.516;18.828;2023-08-21T00:42:27;9.18;;;6.22;;
80313;SDS011;69628;47.516;18.828;2023-08-21T00:43:28;9.18;;;6.00;;
80313;SDS011;69628;47.516;18.828;2023-08-21T00:44:28;11.60;;;5.78;;
80313;SDS011;69628;47.516;18.828;2023-08-21T00:45:28;10.90;;;6.25;;
80313;SDS011;69628;47.516;18.828;2023-08-21T00:46:29;14.80;;;5.80;;
80313;SDS011;69628;47.516;18.828;2023-08-21T00:47:30;8.90;;;5.78;;
80313;SDS011;69628;47.516;18.828;2023-08-21T00:48:31;8.32;;;6.13;;
80313;SDS011;69628;47.516;18.828;2023-08-21T00:49:32;11.82;;;5.97;;
80313;SDS011;69628;47.516;18.828;2023-08-21T00:50:32;10.98;;;6.00;;
80313;SDS011;69628;47.516;18.828;2023-08-21T00:51:33;10.75;;;6.40;;
80313;SDS011;69628;47.516;18.828;2023-08-21T00:52:34;10.88;;;6.03;;
80313;SDS011;69628;47.516;18.828;2023-08-21T00:53:35;11.45;;;6.55;;
80313;SDS011;69628;47.516;18.828;2023-08-21T00:54:35;13.65;;;6.32;;
80313;SDS011;69628;47.516;18.828;2023-08-21T00:55:35;9.07;;;6.43;;
80313;SDS011;69628;47.516;18.828;2023-08-21T00:56:36;8.57;;;6.03;;
80313;SDS011;69628;47.516;18.828;2023-08-21T00:57:36;10.68;;;6.18;;
80313;SDS011;69628;47.516;18.828;2023-08-21T00:58:37;10.57;;;6.25;;
80313;SDS011;69628;47.516;18.828;2023-08-21T00:59:38;12.50;;;6.20;;
80313;SDS011;69628;47.516;18.828;2023-08-21T01:00:38;10.23;;;5.75;;
80313;SDS011;69628;47.516;18.828;2023-08-21T01:01:39;11.20;;;6.40;;
80313;SDS011;69628;47.516;18.828;2023-08-21T01:02:40;7.80;;;5.65;;
80313;SDS011;69628;47.516;18.828;2023-08-21T01:03:40;7.88;;;5.55;;
80313;SDS011;69628;47.516;18.828;2023-08-21T01:04:41;9.35;;;5.50;;
80313;SDS011;69628;47.516;18.828;2023-08-21T01:05:41;9.05;;;5.75;;
80313;SDS011;69628;47.516;18.828;2023-08-21T01:06:42;10.65;;;6.20;;
80313;SDS011;69628;47.516;18.828;2023-08-21T01:07:57;9.15;;;6.53;;
80313;SDS011;69628;47.516;18.828;2023-08-21T01:09:04;8.93;;;5.72;;
80313;SDS011;69628;47.516;18.828;2023-08-21T01:10:15;11.05;;;5.50;;
80313;SDS011;69628;47.516;18.828;2023-08-21T01:11:25;13.10;;;6.50;;
80313;SDS011;69628;47.516;18.828;2023-08-21T01:15:14;7.53;;;6.00;;
80313;SDS011;69628;47.516;18.828;2023-08-21T01:16:09;16.25;;;6.10;;
80313;SDS011;69628;47.516;18.828;2023-08-21T01:17:10;8.52;;;5.88;;
80313;SDS011;69628;47.516;18.828;2023-08-21T01:18:13;11.88;;;6.65;;
80313;SDS011;69628;47.516;18.828;2023-08-21T01:19:36;7.68;;;5.47;;
80313;SDS011;69628;47.516;18.828;2023-08-21T01:20:38;8.30;;;6.43;;
80313;SDS011;69628;47.516;18.828;2023-08-21T01:21:38;9.15;;;6.15;;
80313;SDS011;69628;47.516;18.828;2023-08-21T01:22:39;8.57;;;5.63;;
80313;SDS011;69628;47.516;18.828;2023-08-21T01:23:40;9.05;;;5.78;;
80313;SDS011;69628;47.516;18.828;2023-08-21T01:24:44;8.95;;;5.90;;
80313;SDS011;69628;47.516;18.828;2023-08-21T01:25:44;9.40;;;6.22;;
80313;SDS011;69628;47.516;18.828;2023-08-21T01:26:45;11.00;;;6.30;;
80313;SDS011;69628;47.516;18.828;2023-08-21T01:27:46;8.18;;;5.70;;
80313;SDS011;69628;47.516;18.828;2023-08-21T01:28:48;9.05;;;6.18;;
80313;SDS011;69628;47.516;18.828;2023-08-21T01:29:49;8.68;;;6.03;;
80313;SDS011;69628;47.516;18.828;2023-08-21T01:30:50;9.77;;;6.50;;
80313;SDS011;69628;47.516;18.828;2023-08-21T01:31:58;7.63;;;5.70;;
80313;SDS011;69628;47.516;18.828;2023-08-21T01:33:11;7.28;;;5.50;;
80313;SDS011;69628;47.516;18.828;2023-08-21T01:34:13;10.85;;;5.88;;
80313;SDS011;69628;47.516;18.828;2023-08-21T01:35:14;8.98;;;6.00;;
80313;SDS011;69628;47.516;18.828;2023-08-21T01:36:15;14.38;;;7.60;;
80313;SDS011;69628;47.516;18.828;2023-08-21T01:37:15;9.20;;;6.28;;
80313;SDS011;69628;47.516;18.828;2023-08-21T01:38:16;8.82;;;6.20;;
80313;SDS011;69628;47.516;18.828;2023-08-21T01:39:17;9.07;;;5.70;;
80313;SDS011;69628;47.516;18.828;2023-08-21T01:40:24;8.13;;;5.85;;
80313;SDS011;69628;47.516;18.828;2023-08-21T01:41:24;10.10;;;5.93;;
80313;SDS011;69628;47.516;18.828;2023-08-21T01:42:25;10.13;;;6.20;;
80313;SDS011;69628;47.516;18.828;2023-08-21T01:43:25;8.82;;;5.60;;
80313;SDS011;69628;47.516;18.828;2023-08-21T01:44:25;8.95;;;6.13;;
80313;SDS011;69628;47.516;18.828;2023-08-21T01:45:26;7.93;;;5.90;;
80313;SDS011;69628;47.516;18.828;2023-08-21T01:46:27;10.48;;;6.68;;
80313;SDS011;69628;47.516;18.828;2023-08-21T01:47:27;12.63;;;6.28;;
80313;SDS011;69628;47.516;18.828;2023-08-21T01:48:27;10.45;;;6.18;;
80313;SDS011;69628;47.516;18.828;2023-08-21T01:49:28;8.30;;;5.82;;
80313;SDS011;69628;47.516;18.828;2023-08-21T01:50:28;9.15;;;6.30;;
80313;SDS011;69628;47.516;18.828;2023-08-21T01:51:28;15.93;;;6.85;;
80313;SDS011;69628;47.516;18.828;2023-08-21T01:52:29;8.82;;;5.88;;
80313;SDS011;69628;47.516;18.828;2023-08-21T01:53:29;7.32;;;5.55;;
80313;SDS011;69628;47.516;18.828;2023-08-21T01:54:30;9.75;;;6.03;;
80313;SDS011;69628;47.516;18.828;2023-08-21T01:55:30;9.18;;;6.07;;
80313;SDS011;69628;47.516;18.828;2023-08-21T01:56:30;12.32;;;6.20;;
80313;SDS011;69628;47.516;18.828;2023-08-21T01:57:31;8.70;;;5.78;;
80313;SDS011;69628;47.516;18.828;2023-08-21T01:58:31;13.15;;;6.13;;
80313;SDS011;69628;47.516;18.828;2023-08-21T01:59:31;10.93;;;5.80;;
80313;SDS011;69628;47.516;18.828;2023-08-21T02:00:32;11.02;;;6.68;;
80313;SDS011;69628;47.516;18.828;2023-08-21T02:01:32;8.00;;;5.43;;
80313;SDS011;69628;47.516;18.828;2023-08-21T02:02:33;14.32;;;6.65;;
80313;SDS011;69628;47.516;18.828;2023-08-21T02:03:34;7.55;;;5.45;;
80313;SDS011;69628;47.516;18.828;2023-08-21T02:04:34;6.95;;;5.30;;
80313;SDS011;69628;47.516;18.828;2023-08-21T02:05:38;9.05;;;6.00;;
80313;SDS011;69628;47.516;18.828;2023-08-21T02:06:39;9.38;;;5.57;;
80313;SDS011;69628;47.516;18.828;2023-08-21T02:07:40;9.80;;;6.45;;
80313;SDS011;69628;47.516;18.828;2023-08-21T02:08:40;9.00;;;5.55;;
80313;SDS011;69628;47.516;18.828;2023-08-21T02:09:41;8.27;;;6.03;;
80313;SDS011;69628;47.516;18.828;2023-08-21T02:10:50;8.40;;;5.45;;
80313;SDS011;69628;47.516;18.828;2023-08-21T02:11:51;14.73;;;5.35;;
80313;SDS011;69628;47.516;18.828;2023-08-21T02:12:51;10.43;;;6.00;;
80313;SDS011;69628;47.516;18.828;2023-08-21T02:13:53;12.40;;;5.55;;
80313;SDS011;69628;47.516;18.828;2023-08-21T02:14:54;9.45;;;5.72;;
80313;SDS011;69628;47.516;18.828;2023-08-21T02:15:54;11.93;;;6.40;;
80313;SDS011;69628;47.516;18.828;2023-08-21T02:16:55;9.52;;;6.03;;
80313;SDS011;69628;47.516;18.828;2023-08-21T02:17:55;8.75;;;5.88;;
80313;SDS011;69628;47.516;18.828;2023-08-21T02:18:55;10.57;;;6.38;;
80313;SDS011;69628;47.516;18.828;2023-08-21T02:19:57;11.50;;;5.57;;
80313;SDS011;69628;47.516;18.828;2023-08-21T02:21:00;11.02;;;7.00;;
80313;SDS011;69628;47.516;18.828;2023-08-21T02:22:01;11.98;;;6.45;;
80313;SDS011;69628;47.516;18.828;2023-08-21T02:23:01;9.43;;;6.35;;
80313;SDS011;69628;47.516;18.828;2023-08-21T02:24:02;6.93;;;4.82;;
80313;SDS011;69628;47.516;18.828;2023-08-21T02:25:02;9.75;;;5.65;;
80313;SDS011;69628;47.516;18.828;2023-08-21T02:26:03;13.48;;;6.35;;
80313;SDS011;69628;47.516;18.828;2023-08-21T02:27:03;9.30;;;6.38;;
80313;SDS011;69628;47.516;18.828;2023-08-21T02:28:04;9.77;;;6.43;;
80313;SDS011;69628;47.516;18.828;2023-08-21T02:29:04;9.75;;;6.20;;
80313;SDS011;69628;47.516;18.828;2023-08-21T02:30:05;8.15;;;6.05;;
80313;SDS011;69628;47.516;18.828;2023-08-21T02:31:09;7.80;;;6.03;;
80313;SDS011;69628;47.516;18.828;2023-08-21T02:32:10;10.18;;;6.07;;
80313;SDS011;69628;47.516;18.828;2023-08-21T02:33:10;10.20;;;6.53;;
80313;SDS011;69628;47.516;18.828;2023-08-21T02:34:10;10.45;;;5.80;;
80313;SDS011;69628;47.516;18.828;2023-08-21T02:35:11;9.35;;;6.13;;
80313;SDS011;69628;47.516;18.828;2023-08-21T02:36:11;12.95;;;6.20;;
80313;SDS011;69628;47.516;18.828;2023-08-21T02:37:12;8.43;;;5.90;;
80313;SDS011;69628;47.516;18.828;2023-08-21T02:38:12;9.63;;;6.38;;
80313;SDS011;69628;47.516;18.828;2023-08-21T02:39:13;9.85;;;6.20;;
80313;SDS011;69628;47.516;18.828;2023-08-21T02:40:13;11.85;;;6.00;;
80313;SDS011;69628;47.516;18.828;2023-08-21T02:41:14;17.05;;;6.50;;
80313;SDS011;69628;47.516;18.828;2023-08-21T02:42:14;10.05;;;6.35;;
80313;SDS011;69628;47.516;18.828;2023-08-21T02:43:14;10.77;;;6.28;;
80313;SDS011;69628;47.516;18.828;2023-08-21T02:44:16;12.25;;;6.80;;
80313;SDS011;69628;47.516;18.828;2023-08-21T02:45:16;7.97;;;5.80;;
80313;SDS011;69628;47.516;18.828;2023-08-21T02:46:19;11.00;;;6.07;;
80313;SDS011;69628;47.516;18.828;2023-08-21T02:47:19;7.85;;;5.50;;
80313;SDS011;69628;47.516;18.828;2023-08-21T02:48:20;9.57;;;5.97;;
80313;SDS011;69628;47.516;18.828;2023-08-21T02:49:20;15.35;;;7.03;;
80313;SDS011;69628;47.516;18.828;2023-08-21T02:50:20;10.48;;;6.60;;
80313;SDS011;69628;47.516;18.828;2023-08-21T02:51:21;9.18;;;6.30;;
80313;SDS011;69628;47.516;18.828;2023-08-21T02:52:21;12.00;;;5.80;;
80313;SDS011;69628;47.516;18.828;2023-08-21T02:53:22;11.32;;;6.57;;
80313;SDS011;69628;47.516;18.828;2023-08-21T02:54:22;8.43;;;5.78;;
80313;SDS011;69628;47.516;18.828;2023-08-21T02:55:22;9.45;;;5.65;;
80313;SDS011;69628;47.516;18.828;2023-08-21T02:56:23;9.15;;;6.30;;
80313;SDS011;69628;47.516;18.828;2023-08-21T02:57:24;9.05;;;5.80;;
80313;SDS011;69628;47.516;18.828;2023-08-21T02:58:25;11.70;;;6.70;;
80313;SDS011;69628;47.516;18.828;2023-08-21T02:59:25;9.05;;;5.78;;
80313;SDS011;69628;47.516;18.828;2023-08-21T03:00:26;9.32;;;6.20;;
80313;SDS011;69628;47.516;18.828;2023-08-21T03:01:26;9.82;;;6.68;;
80313;SDS011;69628;47.516;18.828;2023-08-21T03:02:26;8.88;;;5.85;;
80313;SDS011;69628;47.516;18.828;2023-08-21T03:03:27;10.50;;;6.55;;
80313;SDS011;69628;47.516;18.828;2023-08-21T03:04:27;9.63;;;6.32;;
80313;SDS011;69628;47.516;18.828;2023-08-21T03:05:27;14.80;;;6.28;;
80313;SDS011;69628;47.516;18.828;2023-08-21T03:06:28;15.00;;;6.15;;
80313;SDS011;69628;47.516;18.828;2023-08-21T03:07:28;11.85;;;6.22;;
80313;SDS011;69628;47.516;18.828;2023-08-21T03:08:29;13.57;;;7.70;;
80313;SDS011;69628;47.516;18.828;2023-08-21T03:09:29;10.73;;;6.38;;
80313;SDS011;69628;47.516;18.828;2023-08-21T03:10:29;10.43;;;5.80;;
80313;SDS011;69628;47.516;18.828;2023-08-21T03:11:33;13.73;;;5.82;;
80313;SDS011;69628;47.516;18.828;2023-08-21T03:12:34;14.05;;;6.65;;
80313;SDS011;69628;47.516;18.828;2023-08-21T03:13:34;12.07;;;6.43;;
80313;SDS011;69628;47.516;18.828;2023-08-21T03:14:35;13.90;;;5.43;;
80313;SDS011;69628;47.516;18.828;2023-08-21T03:15:35;12.10;;;6.50;;
80313;SDS011;69628;47.516;18.828;2023-08-21T03:16:35;13.18;;;6.25;;
80313;SDS011;69628;47.516;18.828;2023-08-21T03:17:36;12.02;;;6.20;;
80313;SDS011;69628;47.516;18.828;2023-08-21T03:18:54;13.77;;;6.20;;
80313;SDS011;69628;47.516;18.828;2023-08-21T03:19:58;11.75;;;5.82;;
80313;SDS011;69628;47.516;18.828;2023-08-21T03:20:59;11.45;;;7.07;;
80313;SDS011;69628;47.516;18.828;2023-08-21T03:21:59;9.63;;;6.15;;
80313;SDS011;69628;47.516;18.828;2023-08-21T03:23:00;9.20;;;5.63;;
80313;SDS011;69628;47.516;18.828;2023-08-21T03:24:00;9.68;;;6.18;;
80313;SDS011;69628;47.516;18.828;2023-08-21T03:25:01;9.95;;;6.03;;
80313;SDS011;69628;47.516;18.828;2023-08-21T03:26:01;11.52;;;6.85;;
80313;SDS011;69628;47.516;18.828;2023-08-21T03:27:02;11.48;;;6.55;;
80313;SDS011;69628;47.516;18.828;2023-08-21T03:28:02;10.57;;;6.45;;
80313;SDS011;69628;47.516;18.828;2023-08-21T03:29:03;10.55;;;6.45;;
80313;SDS011;69628;47.516;18.828;2023-08-21T03:30:03;11.23;;;6.65;;
80313;SDS011;69628;47.516;18.828;2023-08-21T03:31:05;8.13;;;6.32;;
80313;SDS011;69628;47.516;18.828;2023-08-21T03:32:05;11.15;;;6.50;;
80313;SDS011;69628;47.516;18.828;2023-08-21T03:33:05;9.25;;;6.32;;
80313;SDS011;69628;47.516;18.828;2023-08-21T03:34:07;8.15;;;6.05;;
80313;SDS011;69628;47.516;18.828;2023-08-21T03:35:08;9.60;;;6.10;;
80313;SDS011;69628;47.516;18.828;2023-08-21T03:36:09;9.68;;;6.80;;
80313;SDS011;69628;47.516;18.828;2023-08-21T03:37:09;9.98;;;6.47;;
80313;SDS011;69628;47.516;18.828;2023-08-21T03:38:10;12.27;;;6.97;;
80313;SDS011;69628;47.516;18.828;2023-08-21T03:39:10;8.65;;;6.15;;
80313;SDS011;69628;47.516;18.828;2023-08-21T03:40:11;9.50;;;5.95;;
80313;SDS011;69628;47.516;18.828;2023-08-21T03:41:11;11.30;;;6.85;;
80313;SDS011;69628;47.516;18.828;2023-08-21T03:42:12;12.00;;;7.07;;
80313;SDS011;69628;47.516;18.828;2023-08-21T03:43:12;9.25;;;6.38;;
80313;SDS011;69628;47.516;18.828;2023-08-21T03:44:13;11.75;;;6.07;;
80313;SDS011;69628;47.516;18.828;2023-08-21T03:45:13;14.15;;;7.15;;
80313;SDS011;69628;47.516;18.828;2023-08-21T03:46:13;10.32;;;6.07;;
80313;SDS011;69628;47.516;18.828;2023-08-21T03:47:14;12.20;;;6.15;;
80313;SDS011;69628;47.516;18.828;2023-08-21T03:48:14;11.98;;;6.00;;
80313;SDS011;69628;47.516;18.828;2023-08-21T03:49:14;13.52;;;6.72;;
80313;SDS011;69628;47.516;18.828;2023-08-21T03:50:15;9.73;;;6.18;;
80313;SDS011;69628;47.516;18.828;2023-08-21T03:51:15;12.30;;;7.05;;
80313;SDS011;69628;47.516;18.828;2023-08-21T03:52:16;10.85;;;6.63;;
80313;SDS011;69628;47.516;18.828;2023-08-21T03:53:16;11.32;;;5.93;;
80313;SDS011;69628;47.516;18.828;2023-08-21T03:54:17;12.40;;;6.22;;
80313;SDS011;69628;47.516;18.828;2023-08-21T03:55:18;11.63;;;5.85;;
80313;SDS011;69628;47.516;18.828;2023-08-21T03:56:18;9.80;;;6.47;;
80313;SDS011;69628;47.516;18.828;2023-08-21T03:57:19;9.07;;;5.93;;
80313;SDS011;69628;47.516;18.828;2023-08-21T03:58:19;7.22;;;5.18;;
80313;SDS011;69628;47.516;18.828;2023-08-21T03:59:20;10.70;;;7.70;;
80313;SDS011;69628;47.516;18.828;2023-08-21T04:00:20;11.18;;;6.78;;
80313;SDS011;69628;47.516;18.828;2023-08-21T04:01:20;11.32;;;6.32;;
80313;SDS011;69628;47.516;18.828;2023-08-21T04:02:21;9.50;;;5.88;;
80313;SDS011;69628;47.516;18.828;2023-08-21T04:03:21;9.05;;;5.80;;
80313;SDS011;69628;47.516;18.828;2023-08-21T04:04:22;16.33;;;6.43;;
80313;SDS011;69628;47.516;18.828;2023-08-21T04:05:22;8.48;;;6.45;;
80313;SDS011;69628;47.516;18.828;2023-08-21T04:06:22;11.27;;;6.18;;
80313;SDS011;69628;47.516;18.828;2023-08-21T04:07:23;8.23;;;6.22;;
80313;SDS011;69628;47.516;18.828;2023-08-21T04:08:23;10.18;;;6.00;;
80313;SDS011;69628;47.516;18.828;2023-08-21T04:09:23;9.05;;;5.90;;
80313;SDS011;69628;47.516;18.828;2023-08-21T04:10:24;12.95;;;6.88;;
80313;SDS011;69628;47.516;18.828;2023-08-21T04:11:24;14.90;;;5.90;;
80313;SDS011;69628;47.516;18.828;2023-08-21T04:12:25;9.30;;;6.38;;
80313;SDS011;69628;47.516;18.828;2023-08-21T04:13:26;8.32;;;6.03;;
80313;SDS011;69628;47.516;18.828;2023-08-21T04:14:26;8.85;;;6.05;;
80313;SDS011;69628;47.516;18.828;2023-08-21T04:15:26;9.07;;;6.50;;
80313;SDS011;69628;47.516;18.828;2023-08-21T04:16:27;11.60;;;7.00;;
80313;SDS011;69628;47.516;18.828;2023-08-21T04:17:28;10.88;;;6.07;;
80313;SDS011;69628;47.516;18.828;2023-08-21T04:18:28;13.63;;;6.53;;
80313;SDS011;69628;47.516;18.828;2023-08-21T04:19:29;10.00;;;6.07;;
80313;SDS011;69628;47.516;18.828;2023-08-21T04:20:32;9.82;;;6.63;;
80313;SDS011;69628;47.516;18.828;2023-08-21T04:21:33;9.23;;;6.40;;
80313;SDS011;69628;47.516;18.828;2023-08-21T04:22:33;14.38;;;6.70;;
80313;SDS011;69628;47.516;18.828;2023-08-21T04:23:34;10.82;;;6.43;;
80313;SDS011;69628;47.516;18.828;2023-08-21T04:24:34;11.95;;;6.55;;
80313;SDS011;69628;47.516;18.828;2023-08-21T04:25:34;9.40;;;6.25;;
80313;SDS011;69628;47.516;18.828;2023-08-21T04:26:35;9.30;;;6.63;;
80313;SDS011;69628;47.516;18.828;2023-08-21T04:27:35;8.73;;;6.15;;
80313;SDS011;69628;47.516;18.828;2023-08-21T04:28:36;8.77;;;6.00;;
80313;SDS011;69628;47.516;18.828;2023-08-21T04:29:38;10.13;;;6.55;;
80313;SDS011;69628;47.516;18.828;2023-08-21T04:30:41;10.43;;;6.57;;
80313;SDS011;69628;47.516;18.828;2023-08-21T04:31:44;9.93;;;6.22;;
80313;SDS011;69628;47.516;18.828;2023-08-21T04:32:45;8.23;;;6.43;;
80313;SDS011;69628;47.516;18.828;2023-08-21T04:33:45;11.13;;;6.85;;
80313;SDS011;69628;47.516;18.828;2023-08-21T04:34:45;10.93;;;7.57;;
80313;SDS011;69628;47.516;18.828;2023-08-21T04:35:46;13.40;;;6.72;;
80313;SDS011;69628;47.516;18.828;2023-08-21T04:36:46;10.68;;;6.65;;
80313;SDS011;69628;47.516;18.828;2023-08-21T04:37:47;10.40;;;6.80;;
80313;SDS011;69628;47.516;18.828;2023-08-21T04:38:48;11.50;;;6.32;;
80313;SDS011;69628;47.516;18.828;2023-08-21T04:39:51;11.00;;;7.03;;
80313;SDS011;69628;47.516;18.828;2023-08-21T04:40:55;13.85;;;7.65;;
80313;SDS011;69628;47.516;18.828;2023-08-21T04:41:55;14.20;;;8.07;;
80313;SDS011;69628;47.516;18.828;2023-08-21T04:42:56;11.88;;;7.75;;
80313;SDS011;69628;47.516;18.828;2023-08-21T04:43:56;10.90;;;7.28;;
80313;SDS011;69628;47.516;18.828;2023-08-21T04:44:56;12.73;;;7.75;;
80313;SDS011;69628;47.516;18.828;2023-08-21T04:45:57;12.15;;;7.53;;
80313;SDS011;69628;47.516;18.828;2023-08-21T04:46:57;14.00;;;7.40;;
80313;SDS011;69628;47.516;18.828;2023-08-21T04:47:58;14.73;;;8.45;;
80313;SDS011;69628;47.516;18.828;2023-08-21T04:48:58;11.15;;;7.10;;
80313;SDS011;69628;47.516;18.828;2023-08-21T04:49:58;11.02;;;7.47;;
80313;SDS011;69628;47.516;18.828;2023-08-21T04:50:59;12.13;;;7.40;;
80313;SDS011;69628;47.516;18.828;2023-08-21T04:51:59;11.93;;;7.40;;
80313;SDS011;69628;47.516;18.828;2023-08-21T04:53:00;12.10;;;7.43;;
80313;SDS011;69628;47.516;18.828;2023-08-21T04:54:00;11.68;;;7.10;;
80313;SDS011;69628;47.516;18.828;2023-08-21T04:55:00;10.93;;;7.00;;
80313;SDS011;69628;47.516;18.828;2023-08-21T04:56:01;18.15;;;7.72;;
80313;SDS011;69628;47.516;18.828;2023-08-21T04:57:01;10.65;;;7.50;;
80313;SDS011;69628;47.516;18.828;2023-08-21T04:58:02;13.57;;;6.95;;
80313;SDS011;69628;47.516;18.828;2023-08-21T04:59:02;10.38;;;6.70;;
80313;SDS011;69628;47.516;18.828;2023-08-21T05:00:03;9.93;;;6.72;;
80313;SDS011;69628;47.516;18.828;2023-08-21T05:01:04;14.20;;;7.35;;
80313;SDS011;69628;47.516;18.828;2023-08-21T05:02:05;9.07;;;6.47;;
80313;SDS011;69628;47.516;18.828;2023-08-21T05:03:06;13.85;;;7.70;;
80313;SDS011;69628;47.516;18.828;2023-08-21T05:04:06;12.38;;;7.53;;
80313;SDS011;69628;47.516;18.828;2023-08-21T05:05:06;10.93;;;7.38;;
80313;SDS011;69628;47.516;18.828;2023-08-21T05:06:08;11.98;;;7.60;;
80313;SDS011;69628;47.516;18.828;2023-08-21T05:07:08;11.93;;;7.45;;
80313;SDS011;69628;47.516;18.828;2023-08-21T05:08:09;11.65;;;7.78;;
80313;SDS011;69628;47.516;18.828;2023-08-21T05:09:09;14.60;;;8.05;;
80313;SDS011;69628;47.516;18.828;2023-08-21T05:10:10;12.43;;;8.48;;
80313;SDS011;69628;47.516;18.828;2023-08-21T05:11:10;14.82;;;7.65;;
80313;SDS011;69628;47.516;18.828;2023-08-21T05:12:11;12.00;;;7.13;;
80313;SDS011;69628;47.516;18.828;2023-08-21T05:13:11;11.45;;;7.50;;
80313;SDS011;69628;47.516;18.828;2023-08-21T05:14:11;10.18;;;7.63;;
80313;SDS011;69628;47.516;18.828;2023-08-21T05:15:12;11.57;;;7.45;;
80313;SDS011;69628;47.516;18.828;2023-08-21T05:16:12;11.88;;;6.55;;
80313;SDS011;69628;47.516;18.828;2023-08-21T05:17:13;17.95;;;7.53;;
80313;SDS011;69628;47.516;18.828;2023-08-21T05:18:13;14.75;;;8.00;;
80313;SDS011;69628;47.516;18.828;2023-08-21T05:19:14;13.70;;;7.63;;
80313;SDS011;69628;47.516;18.828;2023-08-21T05:20:14;12.95;;;7.85;;
80313;SDS011;69628;47.516;18.828;2023-08-21T05:21:14;17.33;;;8.43;;
80313;SDS011;69628;47.516;18.828;2023-08-21T05:22:15;11.80;;;7.55;;
80313;SDS011;69628;47.516;18.828;2023-08-21T05:23:15;12.65;;;7.60;;
80313;SDS011;69628;47.516;18.828;2023-08-21T05:24:16;10.05;;;7.63;;
80313;SDS011;69628;47.516;18.828;2023-08-21T05:25:16;16.17;;;8.50;;
80313;SDS011;69628;47.516;18.828;2023-08-21T05:26:16;17.17;;;8.50;;
80313;SDS011;69628;47.516;18.828;2023-08-21T05:27:17;11.57;;;8.05;;
80313;SDS011;69628;47.516;18.828;2023-08-21T05:28:17;13.00;;;8.90;;
80313;SDS011;69628;47.516;18.828;2023-08-21T05:29:18;12.65;;;8.23;;
80313;SDS011;69628;47.516;18.828;2023-08-21T05:30:18;12.18;;;8.10;;
80313;SDS011;69628;47.516;18.828;2023-08-21T05:31:18;11.85;;;8.45;;
80313;SDS011;69628;47.516;18.828;2023-08-21T05:32:19;19.38;;;8.60;;
80313;SDS011;69628;47.516;18.828;2023-08-21T05:33:19;15.50;;;9.30;;
80313;SDS011;69628;47.516;18.828;2023-08-21T05:34:20;16.63;;;9.18;;
80313;SDS011;69628;47.516;18.828;2023-08-21T05:35:20;12.20;;;8.20;;
80313;SDS011;69628;47.516;18.828;2023-08-21T05:36:20;14.40;;;8.23;;
80313;SDS011;69628;47.516;18.828;2023-08-21T05:37:21;14.23;;;8.35;;
80313;SDS011;69628;47.516;18.828;2023-08-21T05:38:21;14.80;;;8.82;;
80313;SDS011;69628;47.516;18.828;2023-08-21T05:39:22;10.23;;;7.43;;
80313;SDS011;69628;47.516;18.828;2023-08-21T05:40:22;12.35;;;8.02;;
80313;SDS011;69628;47.516;18.828;2023-08-21T05:41:22;14.13;;;8.77;;
80313;SDS011;69628;47.516;18.828;2023-08-21T05:42:23;12.25;;;8.50;;
80313;SDS011;69628;47.516;18.828;2023-08-21T05:43:23;11.88;;;8.85;;
80313;SDS011;69628;47.516;18.828;2023-08-21T05:44:24;10.43;;;7.80;;
80313;SDS011;69628;47.516;18.828;2023-08-21T05:45:25;16.65;;;8.27;;
80313;SDS011;69628;47.516;18.828;2023-08-21T05:46:25;12.23;;;8.82;;
80313;SDS011;69628;47.516;18.828;2023-08-21T05:47:25;13.30;;;9.25;;
80313;SDS011;69628;47.516;18.828;2023-08-21T05:48:26;14.98;;;9.23;;
80313;SDS011;69628;47.516;18.828;2023-08-21T05:49:27;12.48;;;8.50;;
80313;SDS011;69628;47.516;18.828;2023-08-21T05:50:27;14.10;;;7.85;;
80313;SDS011;69628;47.516;18.828;2023-08-21T05:51:28;12.77;;;8.48;;
80313;SDS011;69628;47.516;18.828;2023-08-21T05:52:28;12.88;;;8.65;;
80313;SDS011;69628;47.516;18.828;2023-08-21T05:53:28;13.40;;;8.32;;
80313;SDS011;69628;47.516;18.828;2023-08-21T05:54:29;11.88;;;8.10;;
80313;SDS011;69628;47.516;18.828;2023-08-21T05:55:30;17.52;;;8.35;;
80313;SDS011;69628;47.516;18.828;2023-08-21T05:56:31;15.55;;;8.85;;
80313;SDS011;69628;47.516;18.828;2023-08-21T05:57:31;12.07;;;7.63;;
80313;SDS011;69628;47.516;18.828;2023-08-21T05:58:31;12.07;;;7.72;;
80313;SDS011;69628;47.516;18.828;2023-08-21T05:59:32;12.07;;;7.85;;
80313;SDS011;69628;47.516;18.828;2023-08-21T06:00:33;14.38;;;8.43;;
80313;SDS011;69628;47.516;18.828;2023-08-21T06:01:34;12.90;;;8.00;;